sensor_id;sensor_type;location;lat;lon;timestamp;temperature;humidity
19906;DHT22;10115;50.906;4.438;2024-02-23T00:01:44;5.90;99.90
19906;DHT22;10115;50.906;4.438;2024-02-23T00:04:10;5.90;99.90
19906;DHT22;10115;50.906;4.438;2024-02-23T00:06:35;5.80;99.90
19906;DHT22;10115;50.906;4.438;2024-02-23T00:09:01;5.90;99.90
19906;DHT22;10115;50.906;4.438;2024-02-23T00:11:27;5.80;99.90
19906;DHT22;10115;50.906;4.438;2024-02-23T00:13:53;5.80;99.90
19906;DHT22;10115;50.906;4.438;2024-02-23T00:16:19;5.80;99.90
19906;DHT22;10115;50.906;4.438;2024-02-23T00:18:45;5.80;99.90
19906;DHT22;10115;50.906;4.438;2024-02-23T00:21:10;5.80;99.90
19906;DHT22;10115;50.906;4.438;2024-02-23T00:23:36;5.70;99.90
19906;DHT22;10115;50.906;4.438;2024-02-23T00:26:02;5.80;99.90
19906;DHT22;10115;50.906;4.438;2024-02-23T00:28:28;5.70;99.90
19906;DHT22;10115;50.906;4.438;2024-02-23T00:30:54;5.70;99.90
19906;DHT22;10115;50.906;4.438;2024-02-23T00:33:20;5.70;99.90
19906;DHT22;10115;50.906;4.438;2024-02-23T00:35:45;5.70;99.90
19906;DHT22;10115;50.906;4.438;2024-02-23T00:38:11;5.70;99.90
19906;DHT22;10115;50.906;4.438;2024-02-23T00:40:36;5.60;99.90
19906;DHT22;10115;50.906;4.438;2024-02-23T00:43:04;5.60;99.90
19906;DHT22;10115;50.906;4.438;2024-02-23T00:45:29;5.60;99.90
19906;DHT22;10115;50.906;4.438;2024-02-23T00:47:55;5.70;99.90
19906;DHT22;10115;50.906;4.438;2024-02-23T00:50:22;5.60;99.90
19906;DHT22;10115;50.906;4.438;2024-02-23T00:52:49;5.50;99.90
19906;DHT22;10115;50.906;4.438;2024-02-23T00:55:14;5.30;99.90
19906;DHT22;10115;50.906;4.438;2024-02-23T00:57:40;5.30;99.90
19906;DHT22;10115;50.906;4.438;2024-02-23T01:00:06;5.30;99.90
19906;DHT22;10115;50.906;4.438;2024-02-23T01:02:32;5.30;99.90
19906;DHT22;10115;50.906;4.438;2024-02-23T01:05:00;5.30;99.90
19906;DHT22;10115;50.906;4.438;2024-02-23T01:07:26;5.30;99.90
19906;DHT22;10115;50.906;4.438;2024-02-23T01:09:52;5.30;99.90
19906;DHT22;10115;50.906;4.438;2024-02-23T01:12:17;5.30;99.90
19906;DHT22;10115;50.906;4.438;2024-02-23T01:14:43;5.30;99.90
19906;DHT22;10115;50.906;4.438;2024-02-23T01:17:09;5.30;99.90
19906;DHT22;10115;50.906;4.438;2024-02-23T01:19:34;5.30;99.90
19906;DHT22;10115;50.906;4.438;2024-02-23T01:22:00;5.30;99.90
19906;DHT22;10115;50.906;4.438;2024-02-23T01:24:29;5.30;99.90
19906;DHT22;10115;50.906;4.438;2024-02-23T01:26:57;5.30;99.90
19906;DHT22;10115;50.906;4.438;2024-02-23T01:29:26;5.30;99.90
19906;DHT22;10115;50.906;4.438;2024-02-23T01:31:51;5.20;99.90
19906;DHT22;10115;50.906;4.438;2024-02-23T01:34:20;5.30;99.90
19906;DHT22;10115;50.906;4.438;2024-02-23T01:36:45;5.30;99.90
19906;DHT22;10115;50.906;4.438;2024-02-23T01:39:11;5.30;99.90
19906;DHT22;10115;50.906;4.438;2024-02-23T01:41:37;5.40;99.90
19906;DHT22;10115;50.906;4.438;2024-02-23T01:44:03;5.40;99.90
19906;DHT22;10115;50.906;4.438;2024-02-23T01:46:28;5.40;99.90
19906;DHT22;10115;50.906;4.438;2024-02-23T01:48:54;5.40;99.90
19906;DHT22;10115;50.906;4.438;2024-02-23T01:51:20;5.40;99.90
19906;DHT22;10115;50.906;4.438;2024-02-23T01:53:46;5.40;99.90
19906;DHT22;10115;50.906;4.438;2024-02-23T01:56:13;5.40;99.90
19906;DHT22;10115;50.906;4.438;2024-02-23T01:58:43;5.30;99.90
19906;DHT22;10115;50.906;4.438;2024-02-23T02:01:10;5.30;99.90
19906;DHT22;10115;50.906;4.438;2024-02-23T02:03:38;5.20;99.90
19906;DHT22;10115;50.906;4.438;2024-02-23T02:06:05;5.10;99.90
19906;DHT22;10115;50.906;4.438;2024-02-23T02:08:33;5.10;99.90
19906;DHT22;10115;50.906;4.438;2024-02-23T02:10:59;5.00;99.90
19906;DHT22;10115;50.906;4.438;2024-02-23T02:13:24;5.00;99.90
19906;DHT22;10115;50.906;4.438;2024-02-23T02:15:50;5.00;99.90
19906;DHT22;10115;50.906;4.438;2024-02-23T02:18:16;5.00;99.90
19906;DHT22;10115;50.906;4.438;2024-02-23T02:20:54;5.00;99.90
19906;DHT22;10115;50.906;4.438;2024-02-23T02:23:20;4.90;99.90
19906;DHT22;10115;50.906;4.438;2024-02-23T02:25:53;4.90;99.90
19906;DHT22;10115;50.906;4.438;2024-02-23T02:28:19;5.00;99.90
19906;DHT22;10115;50.906;4.438;2024-02-23T02:30:44;5.00;99.90
19906;DHT22;10115;50.906;4.438;2024-02-23T02:33:10;5.10;99.90
19906;DHT22;10115;50.906;4.438;2024-02-23T02:35:36;5.20;99.90
19906;DHT22;10115;50.906;4.438;2024-02-23T02:38:01;5.20;99.90
19906;DHT22;10115;50.906;4.438;2024-02-23T02:40:27;5.20;99.90
19906;DHT22;10115;50.906;4.438;2024-02-23T02:42:52;5.20;99.90
19906;DHT22;10115;50.906;4.438;2024-02-23T02:45:18;5.20;99.90
19906;DHT22;10115;50.906;4.438;2024-02-23T02:47:44;5.30;99.90
19906;DHT22;10115;50.906;4.438;2024-02-23T02:50:09;5.30;99.90
19906;DHT22;10115;50.906;4.438;2024-02-23T02:52:35;5.30;99.90
19906;DHT22;10115;50.906;4.438;2024-02-23T02:55:00;5.30;99.90
19906;DHT22;10115;50.906;4.438;2024-02-23T02:57:26;5.30;99.90
19906;DHT22;10115;50.906;4.438;2024-02-23T02:59:52;5.30;99.90
19906;DHT22;10115;50.906;4.438;2024-02-23T03:02:17;5.40;99.90
19906;DHT22;10115;50.906;4.438;2024-02-23T03:04:49;5.40;99.90
19906;DHT22;10115;50.906;4.438;2024-02-23T03:07:16;5.40;99.90
19906;DHT22;10115;50.906;4.438;2024-02-23T03:09:42;5.40;99.90
19906;DHT22;10115;50.906;4.438;2024-02-23T03:12:08;5.40;99.90
19906;DHT22;10115;50.906;4.438;2024-02-23T03:14:34;5.40;99.90
19906;DHT22;10115;50.906;4.438;2024-02-23T03:17:00;5.40;99.90
19906;DHT22;10115;50.906;4.438;2024-02-23T03:19:25;5.30;99.90
19906;DHT22;10115;50.906;4.438;2024-02-23T03:21:51;5.40;99.90
19906;DHT22;10115;50.906;4.438;2024-02-23T03:24:17;5.40;99.90
19906;DHT22;10115;50.906;4.438;2024-02-23T03:26:43;5.40;99.90
19906;DHT22;10115;50.906;4.438;2024-02-23T03:29:09;5.40;99.90
19906;DHT22;10115;50.906;4.438;2024-02-23T03:31:35;5.40;99.90
19906;DHT22;10115;50.906;4.438;2024-02-23T03:34:02;5.40;99.90
19906;DHT22;10115;50.906;4.438;2024-02-23T03:36:28;5.50;99.90
19906;DHT22;10115;50.906;4.438;2024-02-23T03:38:53;5.50;99.90
19906;DHT22;10115;50.906;4.438;2024-02-23T03:41:19;5.50;99.90
19906;DHT22;10115;50.906;4.438;2024-02-23T03:43:44;5.50;99.90
19906;DHT22;10115;50.906;4.438;2024-02-23T03:46:10;5.50;99.90
19906;DHT22;10115;50.906;4.438;2024-02-23T03:48:37;5.60;99.90
19906;DHT22;10115;50.906;4.438;2024-02-23T03:51:04;5.70;99.90
19906;DHT22;10115;50.906;4.438;2024-02-23T03:53:30;5.70;99.90
19906;DHT22;10115;50.906;4.438;2024-02-23T03:55:57;5.70;99.90
19906;DHT22;10115;50.906;4.438;2024-02-23T03:58:23;5.70;99.90
19906;DHT22;10115;50.906;4.438;2024-02-23T04:00:48;5.70;99.90
19906;DHT22;10115;50.906;4.438;2024-02-23T04:03:14;5.70;99.90
19906;DHT22;10115;50.906;4.438;2024-02-23T04:05:39;5.70;99.90
19906;DHT22;10115;50.906;4.438;2024-02-23T04:08:05;5.70;99.90
19906;DHT22;10115;50.906;4.438;2024-02-23T04:10:31;5.70;99.90
19906;DHT22;10115;50.906;4.438;2024-02-23T04:12:58;5.70;99.90
19906;DHT22;10115;50.906;4.438;2024-02-23T04:15:23;5.80;99.90
19906;DHT22;10115;50.906;4.438;2024-02-23T04:17:49;5.80;99.90
19906;DHT22;10115;50.906;4.438;2024-02-23T04:20:15;5.80;99.90
19906;DHT22;10115;50.906;4.438;2024-02-23T04:22:40;5.80;99.90
19906;DHT22;10115;50.906;4.438;2024-02-23T04:25:06;5.90;99.90
19906;DHT22;10115;50.906;4.438;2024-02-23T04:27:32;5.90;99.90
19906;DHT22;10115;50.906;4.438;2024-02-23T04:29:58;5.90;99.90
19906;DHT22;10115;50.906;4.438;2024-02-23T04:32:23;5.90;99.90
19906;DHT22;10115;50.906;4.438;2024-02-23T04:34:49;5.80;99.90
19906;DHT22;10115;50.906;4.438;2024-02-23T04:37:14;5.80;99.90
19906;DHT22;10115;50.906;4.438;2024-02-23T04:39:40;5.80;99.90
19906;DHT22;10115;50.906;4.438;2024-02-23T04:42:07;5.80;99.90
19906;DHT22;10115;50.906;4.438;2024-02-23T04:44:34;5.80;99.90
19906;DHT22;10115;50.906;4.438;2024-02-23T04:47:00;5.80;99.90
19906;DHT22;10115;50.906;4.438;2024-02-23T04:49:26;5.80;99.90
19906;DHT22;10115;50.906;4.438;2024-02-23T04:51:51;5.90;99.90
19906;DHT22;10115;50.906;4.438;2024-02-23T04:54:18;5.90;99.90
19906;DHT22;10115;50.906;4.438;2024-02-23T04:56:44;5.80;99.90
19906;DHT22;10115;50.906;4.438;2024-02-23T04:59:09;5.90;99.90
19906;DHT22;10115;50.906;4.438;2024-02-23T05:01:36;5.90;99.90
19906;DHT22;10115;50.906;4.438;2024-02-23T05:04:03;6.00;99.90
19906;DHT22;10115;50.906;4.438;2024-02-23T05:06:29;6.00;99.90
19906;DHT22;10115;50.906;4.438;2024-02-23T05:08:55;6.00;99.90
19906;DHT22;10115;50.906;4.438;2024-02-23T05:11:21;6.00;99.90
19906;DHT22;10115;50.906;4.438;2024-02-23T05:13:47;6.10;99.90
19906;DHT22;10115;50.906;4.438;2024-02-23T05:16:16;6.10;99.90
19906;DHT22;10115;50.906;4.438;2024-02-23T05:18:42;6.20;99.90
19906;DHT22;10115;50.906;4.438;2024-02-23T05:21:09;6.00;99.90
19906;DHT22;10115;50.906;4.438;2024-02-23T05:23:35;6.10;99.90
19906;DHT22;10115;50.906;4.438;2024-02-23T05:26:01;6.10;99.90
19906;DHT22;10115;50.906;4.438;2024-02-23T05:28:27;6.10;99.90
19906;DHT22;10115;50.906;4.438;2024-02-23T05:30:54;6.20;99.90
19906;DHT22;10115;50.906;4.438;2024-02-23T05:33:20;6.20;99.90
19906;DHT22;10115;50.906;4.438;2024-02-23T05:35:49;6.20;99.90
19906;DHT22;10115;50.906;4.438;2024-02-23T05:38:15;6.10;99.90
19906;DHT22;10115;50.906;4.438;2024-02-23T05:40:41;6.10;99.90
19906;DHT22;10115;50.906;4.438;2024-02-23T05:43:07;6.10;99.90
19906;DHT22;10115;50.906;4.438;2024-02-23T05:45:33;6.20;99.90
19906;DHT22;10115;50.906;4.438;2024-02-23T05:47:58;6.20;99.90
19906;DHT22;10115;50.906;4.438;2024-02-23T05:50:24;6.00;99.90
19906;DHT22;10115;50.906;4.438;2024-02-23T05:52:50;5.90;99.90
19906;DHT22;10115;50.906;4.438;2024-02-23T05:55:15;5.90;99.90
19906;DHT22;10115;50.906;4.438;2024-02-23T05:57:41;5.90;99.90
19906;DHT22;10115;50.906;4.438;2024-02-23T06:00:07;5.90;99.90
19906;DHT22;10115;50.906;4.438;2024-02-23T06:02:33;6.00;99.90
19906;DHT22;10115;50.906;4.438;2024-02-23T06:04:58;5.90;99.90
19906;DHT22;10115;50.906;4.438;2024-02-23T06:07:24;5.90;99.90
19906;DHT22;10115;50.906;4.438;2024-02-23T06:09:57;5.90;99.90
19906;DHT22;10115;50.906;4.438;2024-02-23T06:12:24;6.00;99.90
19906;DHT22;10115;50.906;4.438;2024-02-23T06:14:51;5.90;99.90
19906;DHT22;10115;50.906;4.438;2024-02-23T06:17:16;6.00;99.90
19906;DHT22;10115;50.906;4.438;2024-02-23T06:19:42;6.00;99.90
19906;DHT22;10115;50.906;4.438;2024-02-23T06:22:08;6.00;99.90
19906;DHT22;10115;50.906;4.438;2024-02-23T06:24:36;6.00;99.90
19906;DHT22;10115;50.906;4.438;2024-02-23T06:27:01;6.00;99.90
19906;DHT22;10115;50.906;4.438;2024-02-23T06:29:29;6.00;99.90
19906;DHT22;10115;50.906;4.438;2024-02-23T06:31:55;6.00;99.90
19906;DHT22;10115;50.906;4.438;2024-02-23T06:34:20;6.10;99.90
19906;DHT22;10115;50.906;4.438;2024-02-23T06:36:46;6.10;99.90
19906;DHT22;10115;50.906;4.438;2024-02-23T06:39:12;6.10;99.90
19906;DHT22;10115;50.906;4.438;2024-02-23T06:41:40;6.20;99.90
19906;DHT22;10115;50.906;4.438;2024-02-23T06:44:06;6.20;99.90
19906;DHT22;10115;50.906;4.438;2024-02-23T06:46:32;6.20;99.90
19906;DHT22;10115;50.906;4.438;2024-02-23T06:48:57;6.30;99.90
19906;DHT22;10115;50.906;4.438;2024-02-23T06:51:23;6.30;99.90
19906;DHT22;10115;50.906;4.438;2024-02-23T06:53:48;6.40;99.90
19906;DHT22;10115;50.906;4.438;2024-02-23T06:56:14;6.30;99.90
19906;DHT22;10115;50.906;4.438;2024-02-23T06:58:40;6.40;99.90
19906;DHT22;10115;50.906;4.438;2024-02-23T07:01:05;6.50;99.90
19906;DHT22;10115;50.906;4.438;2024-02-23T07:03:33;6.50;99.90
19906;DHT22;10115;50.906;4.438;2024-02-23T07:05:58;6.50;99.90
19906;DHT22;10115;50.906;4.438;2024-02-23T07:08:24;6.50;99.90
19906;DHT22;10115;50.906;4.438;2024-02-23T07:10:50;6.50;99.90
19906;DHT22;10115;50.906;4.438;2024-02-23T07:13:16;6.40;99.90
19906;DHT22;10115;50.906;4.438;2024-02-23T07:15:43;6.40;99.90
19906;DHT22;10115;50.906;4.438;2024-02-23T07:18:09;6.40;99.90
19906;DHT22;10115;50.906;4.438;2024-02-23T07:20:37;6.40;99.90
19906;DHT22;10115;50.906;4.438;2024-02-23T07:23:04;6.40;99.90
19906;DHT22;10115;50.906;4.438;2024-02-23T07:25:30;6.40;99.90
19906;DHT22;10115;50.906;4.438;2024-02-23T07:27:56;6.50;99.90
19906;DHT22;10115;50.906;4.438;2024-02-23T07:30:21;6.60;99.90
19906;DHT22;10115;50.906;4.438;2024-02-23T07:32:48;6.50;99.90
19906;DHT22;10115;50.906;4.438;2024-02-23T07:35:13;6.50;99.90
19906;DHT22;10115;50.906;4.438;2024-02-23T07:37:39;6.60;99.90
19906;DHT22;10115;50.906;4.438;2024-02-23T07:40:05;6.70;99.90
19906;DHT22;10115;50.906;4.438;2024-02-23T07:42:32;6.60;99.90
19906;DHT22;10115;50.906;4.438;2024-02-23T07:44:58;6.80;99.90
19906;DHT22;10115;50.906;4.438;2024-02-23T07:47:24;6.80;99.90
19906;DHT22;10115;50.906;4.438;2024-02-23T07:49:49;6.80;99.90
19906;DHT22;10115;50.906;4.438;2024-02-23T07:52:16;7.00;99.90
19906;DHT22;10115;50.906;4.438;2024-02-23T07:54:42;7.10;99.90
19906;DHT22;10115;50.906;4.438;2024-02-23T07:57:07;7.20;99.90
19906;DHT22;10115;50.906;4.438;2024-02-23T07:59:33;7.20;99.90
19906;DHT22;10115;50.906;4.438;2024-02-23T08:01:59;7.00;99.90
19906;DHT22;10115;50.906;4.438;2024-02-23T08:04:24;7.00;99.90
19906;DHT22;10115;50.906;4.438;2024-02-23T08:06:50;6.80;99.90
19906;DHT22;10115;50.906;4.438;2024-02-23T08:09:16;6.90;99.90
19906;DHT22;10115;50.906;4.438;2024-02-23T08:11:43;6.90;99.90
19906;DHT22;10115;50.906;4.438;2024-02-23T08:14:08;6.90;99.90
19906;DHT22;10115;50.906;4.438;2024-02-23T08:16:34;6.80;99.90
19906;DHT22;10115;50.906;4.438;2024-02-23T08:19:00;6.70;99.90
19906;DHT22;10115;50.906;4.438;2024-02-23T08:21:25;6.50;99.90
19906;DHT22;10115;50.906;4.438;2024-02-23T08:23:54;6.40;99.90
19906;DHT22;10115;50.906;4.438;2024-02-23T08:26:19;6.30;99.90
19906;DHT22;10115;50.906;4.438;2024-02-23T08:28:45;6.20;99.90
19906;DHT22;10115;50.906;4.438;2024-02-23T08:31:11;6.10;99.90
19906;DHT22;10115;50.906;4.438;2024-02-23T08:33:36;6.10;99.90
19906;DHT22;10115;50.906;4.438;2024-02-23T08:36:02;6.00;99.90
19906;DHT22;10115;50.906;4.438;2024-02-23T08:38:34;6.00;99.90
19906;DHT22;10115;50.906;4.438;2024-02-23T08:40:59;5.90;99.90
19906;DHT22;10115;50.906;4.438;2024-02-23T08:43:25;5.90;99.90
19906;DHT22;10115;50.906;4.438;2024-02-23T08:45:51;5.90;99.90
19906;DHT22;10115;50.906;4.438;2024-02-23T08:48:17;5.80;99.90
19906;DHT22;10115;50.906;4.438;2024-02-23T08:50:43;5.80;99.90
19906;DHT22;10115;50.906;4.438;2024-02-23T08:53:09;5.80;99.90
19906;DHT22;10115;50.906;4.438;2024-02-23T08:55:34;5.90;99.90
19906;DHT22;10115;50.906;4.438;2024-02-23T08:58:00;5.90;99.90
19906;DHT22;10115;50.906;4.438;2024-02-23T09:00:26;5.90;99.90
19906;DHT22;10115;50.906;4.438;2024-02-23T09:02:51;5.80;99.90
19906;DHT22;10115;50.906;4.438;2024-02-23T09:05:17;5.90;99.90
19906;DHT22;10115;50.906;4.438;2024-02-23T09:07:43;5.90;99.90
19906;DHT22;10115;50.906;4.438;2024-02-23T09:10:08;5.90;99.90
19906;DHT22;10115;50.906;4.438;2024-02-23T09:12:34;6.30;99.90
19906;DHT22;10115;50.906;4.438;2024-02-23T09:15:00;6.40;99.90
19906;DHT22;10115;50.906;4.438;2024-02-23T09:17:25;6.30;99.90
19906;DHT22;10115;50.906;4.438;2024-02-23T09:19:51;6.20;99.90
19906;DHT22;10115;50.906;4.438;2024-02-23T09:22:17;6.20;99.90
19906;DHT22;10115;50.906;4.438;2024-02-23T09:24:43;6.20;99.90
19906;DHT22;10115;50.906;4.438;2024-02-23T09:27:09;6.30;99.90
19906;DHT22;10115;50.906;4.438;2024-02-23T09:29:34;6.40;99.90
19906;DHT22;10115;50.906;4.438;2024-02-23T09:32:00;6.40;99.90
19906;DHT22;10115;50.906;4.438;2024-02-23T09:34:26;6.40;99.90
19906;DHT22;10115;50.906;4.438;2024-02-23T09:36:52;6.50;99.90
19906;DHT22;10115;50.906;4.438;2024-02-23T09:39:18;6.50;99.90
19906;DHT22;10115;50.906;4.438;2024-02-23T09:41:43;6.60;99.90
19906;DHT22;10115;50.906;4.438;2024-02-23T09:44:09;6.50;99.90
19906;DHT22;10115;50.906;4.438;2024-02-23T09:46:37;6.70;99.90
19906;DHT22;10115;50.906;4.438;2024-02-23T09:49:03;6.90;99.90
19906;DHT22;10115;50.906;4.438;2024-02-23T09:51:32;6.90;99.90
19906;DHT22;10115;50.906;4.438;2024-02-23T09:53:59;6.80;99.90
19906;DHT22;10115;50.906;4.438;2024-02-23T09:56:27;6.80;99.90
19906;DHT22;10115;50.906;4.438;2024-02-23T09:58:56;7.00;99.90
19906;DHT22;10115;50.906;4.438;2024-02-23T10:01:28;7.00;99.90
19906;DHT22;10115;50.906;4.438;2024-02-23T10:03:57;7.10;99.90
19906;DHT22;10115;50.906;4.438;2024-02-23T10:06:24;7.00;99.90
19906;DHT22;10115;50.906;4.438;2024-02-23T10:08:50;7.10;99.90
19906;DHT22;10115;50.906;4.438;2024-02-23T10:11:18;7.20;99.90
19906;DHT22;10115;50.906;4.438;2024-02-23T10:13:44;7.30;99.90
19906;DHT22;10115;50.906;4.438;2024-02-23T10:16:10;7.30;99.90
19906;DHT22;10115;50.906;4.438;2024-02-23T10:18:38;7.30;99.90
19906;DHT22;10115;50.906;4.438;2024-02-23T10:21:05;7.30;99.90
19906;DHT22;10115;50.906;4.438;2024-02-23T10:23:30;7.40;99.90
19906;DHT22;10115;50.906;4.438;2024-02-23T10:25:56;7.60;99.90
19906;DHT22;10115;50.906;4.438;2024-02-23T10:28:22;7.60;99.90
19906;DHT22;10115;50.906;4.438;2024-02-23T10:30:48;7.60;99.90
19906;DHT22;10115;50.906;4.438;2024-02-23T10:33:14;7.70;99.90
19906;DHT22;10115;50.906;4.438;2024-02-23T10:35:41;7.90;99.90
19906;DHT22;10115;50.906;4.438;2024-02-23T10:38:10;7.90;99.90
19906;DHT22;10115;50.906;4.438;2024-02-23T10:40:39;8.00;99.90
19906;DHT22;10115;50.906;4.438;2024-02-23T10:43:14;7.90;99.90
19906;DHT22;10115;50.906;4.438;2024-02-23T10:45:42;8.20;99.90
19906;DHT22;10115;50.906;4.438;2024-02-23T10:48:11;8.40;99.90
19906;DHT22;10115;50.906;4.438;2024-02-23T10:50:42;8.10;99.90
19906;DHT22;10115;50.906;4.438;2024-02-23T10:55:40;7.80;99.90
19906;DHT22;10115;50.906;4.438;2024-02-23T10:58:07;8.00;99.90
19906;DHT22;10115;50.906;4.438;2024-02-23T11:00:36;8.10;99.90
19906;DHT22;10115;50.906;4.438;2024-02-23T11:03:03;8.00;99.90
19906;DHT22;10115;50.906;4.438;2024-02-23T11:05:31;8.20;99.90
19906;DHT22;10115;50.906;4.438;2024-02-23T11:07:56;8.20;99.90
19906;DHT22;10115;50.906;4.438;2024-02-23T11:10:25;8.20;99.90
19906;DHT22;10115;50.906;4.438;2024-02-23T11:13:00;8.30;99.90
19906;DHT22;10115;50.906;4.438;2024-02-23T11:15:27;8.10;99.90
19906;DHT22;10115;50.906;4.438;2024-02-23T11:17:53;8.40;99.90
19906;DHT22;10115;50.906;4.438;2024-02-23T11:20:34;8.50;99.90
19906;DHT22;10115;50.906;4.438;2024-02-23T11:23:13;8.50;99.90
19906;DHT22;10115;50.906;4.438;2024-02-23T11:25:39;8.70;99.90
19906;DHT22;10115;50.906;4.438;2024-02-23T11:33:08;8.50;99.90
19906;DHT22;10115;50.906;4.438;2024-02-23T11:35:34;8.40;99.90
19906;DHT22;10115;50.906;4.438;2024-02-23T11:38:03;8.30;99.90
19906;DHT22;10115;50.906;4.438;2024-02-23T11:40:32;8.40;99.90
19906;DHT22;10115;50.906;4.438;2024-02-23T11:42:59;8.50;99.90
19906;DHT22;10115;50.906;4.438;2024-02-23T11:45:25;8.40;99.90
19906;DHT22;10115;50.906;4.438;2024-02-23T11:50:21;8.20;99.90
19906;DHT22;10115;50.906;4.438;2024-02-23T11:52:47;8.00;99.90
19906;DHT22;10115;50.906;4.438;2024-02-23T11:55:13;8.00;99.90
19906;DHT22;10115;50.906;4.438;2024-02-23T11:57:44;8.10;99.90
19906;DHT22;10115;50.906;4.438;2024-02-23T12:00:11;8.00;99.90
19906;DHT22;10115;50.906;4.438;2024-02-23T12:02:36;8.10;99.90
19906;DHT22;10115;50.906;4.438;2024-02-23T12:05:02;8.10;99.90
19906;DHT22;10115;50.906;4.438;2024-02-23T12:07:32;8.30;99.90
19906;DHT22;10115;50.906;4.438;2024-02-23T12:09:58;8.40;99.90
19906;DHT22;10115;50.906;4.438;2024-02-23T12:12:25;8.50;99.90
19906;DHT22;10115;50.906;4.438;2024-02-23T12:14:51;8.50;99.90
19906;DHT22;10115;50.906;4.438;2024-02-23T12:17:17;8.40;99.90
19906;DHT22;10115;50.906;4.438;2024-02-23T12:19:42;8.50;99.90
19906;DHT22;10115;50.906;4.438;2024-02-23T12:22:10;8.60;99.90
19906;DHT22;10115;50.906;4.438;2024-02-23T12:24:36;8.70;99.90
19906;DHT22;10115;50.906;4.438;2024-02-23T12:27:02;8.70;99.90
19906;DHT22;10115;50.906;4.438;2024-02-23T12:29:28;8.90;99.90
19906;DHT22;10115;50.906;4.438;2024-02-23T12:32:07;8.90;99.90
19906;DHT22;10115;50.906;4.438;2024-02-23T12:34:33;8.80;99.90
19906;DHT22;10115;50.906;4.438;2024-02-23T12:37:02;8.90;99.90
19906;DHT22;10115;50.906;4.438;2024-02-23T12:39:28;9.00;99.90
19906;DHT22;10115;50.906;4.438;2024-02-23T12:41:53;9.00;99.90
19906;DHT22;10115;50.906;4.438;2024-02-23T12:44:22;8.80;99.90
19906;DHT22;10115;50.906;4.438;2024-02-23T12:46:47;8.80;99.90
19906;DHT22;10115;50.906;4.438;2024-02-23T12:49:13;8.70;99.90
19906;DHT22;10115;50.906;4.438;2024-02-23T12:51:39;8.60;99.90
19906;DHT22;10115;50.906;4.438;2024-02-23T12:54:04;8.60;99.90
19906;DHT22;10115;50.906;4.438;2024-02-23T12:56:30;8.60;99.90
19906;DHT22;10115;50.906;4.438;2024-02-23T12:58:56;8.80;99.90
19906;DHT22;10115;50.906;4.438;2024-02-23T13:01:22;9.00;99.90
19906;DHT22;10115;50.906;4.438;2024-02-23T13:03:48;9.00;99.90
19906;DHT22;10115;50.906;4.438;2024-02-23T13:06:13;9.10;99.90
19906;DHT22;10115;50.906;4.438;2024-02-23T13:08:39;9.20;99.90
19906;DHT22;10115;50.906;4.438;2024-02-23T13:11:06;9.00;99.90
19906;DHT22;10115;50.906;4.438;2024-02-23T13:13:31;9.20;99.90
19906;DHT22;10115;50.906;4.438;2024-02-23T13:15:57;9.10;99.90
19906;DHT22;10115;50.906;4.438;2024-02-23T13:18:23;8.90;99.90
19906;DHT22;10115;50.906;4.438;2024-02-23T13:20:48;8.70;99.90
19906;DHT22;10115;50.906;4.438;2024-02-23T13:23:14;8.70;99.90
19906;DHT22;10115;50.906;4.438;2024-02-23T13:25:42;8.80;99.90
19906;DHT22;10115;50.906;4.438;2024-02-23T13:28:08;8.80;99.90
19906;DHT22;10115;50.906;4.438;2024-02-23T13:30:35;9.10;99.90
19906;DHT22;10115;50.906;4.438;2024-02-23T13:33:01;9.20;99.90
19906;DHT22;10115;50.906;4.438;2024-02-23T13:35:27;9.30;99.90
19906;DHT22;10115;50.906;4.438;2024-02-23T13:37:56;9.10;99.90
19906;DHT22;10115;50.906;4.438;2024-02-23T13:40:23;9.40;99.90
19906;DHT22;10115;50.906;4.438;2024-02-23T13:42:48;9.40;99.90
19906;DHT22;10115;50.906;4.438;2024-02-23T13:45:18;9.70;99.90
19906;DHT22;10115;50.906;4.438;2024-02-23T13:47:56;9.50;99.90
19906;DHT22;10115;50.906;4.438;2024-02-23T13:50:22;9.60;99.90
19906;DHT22;10115;50.906;4.438;2024-02-23T13:52:48;9.80;99.90
19906;DHT22;10115;50.906;4.438;2024-02-23T13:55:17;9.90;99.90
19906;DHT22;10115;50.906;4.438;2024-02-23T13:57:43;9.50;99.90
19906;DHT22;10115;50.906;4.438;2024-02-23T14:00:09;9.30;99.90
19906;DHT22;10115;50.906;4.438;2024-02-23T14:02:38;9.20;99.90
19906;DHT22;10115;50.906;4.438;2024-02-23T14:05:06;9.50;99.90
19906;DHT22;10115;50.906;4.438;2024-02-23T14:07:35;9.40;99.90
19906;DHT22;10115;50.906;4.438;2024-02-23T14:10:02;9.40;99.90
19906;DHT22;10115;50.906;4.438;2024-02-23T14:12:28;9.50;99.90
19906;DHT22;10115;50.906;4.438;2024-02-23T14:14:54;10.10;99.90
19906;DHT22;10115;50.906;4.438;2024-02-23T14:17:20;10.40;99.90
19906;DHT22;10115;50.906;4.438;2024-02-23T14:19:46;9.90;99.90
19906;DHT22;10115;50.906;4.438;2024-02-23T14:22:12;9.60;99.90
19906;DHT22;10115;50.906;4.438;2024-02-23T14:24:38;9.70;99.90
19906;DHT22;10115;50.906;4.438;2024-02-23T14:27:04;9.50;99.90
19906;DHT22;10115;50.906;4.438;2024-02-23T14:29:30;9.40;99.90
19906;DHT22;10115;50.906;4.438;2024-02-23T14:31:56;9.70;99.90
19906;DHT22;10115;50.906;4.438;2024-02-23T14:34:21;10.40;99.90
19906;DHT22;10115;50.906;4.438;2024-02-23T14:36:49;10.20;99.90
19906;DHT22;10115;50.906;4.438;2024-02-23T14:39:15;9.90;99.90
19906;DHT22;10115;50.906;4.438;2024-02-23T14:41:41;9.60;99.90
19906;DHT22;10115;50.906;4.438;2024-02-23T14:44:08;9.70;99.90
19906;DHT22;10115;50.906;4.438;2024-02-23T14:46:34;9.60;99.90
19906;DHT22;10115;50.906;4.438;2024-02-23T14:48:59;9.50;99.90
19906;DHT22;10115;50.906;4.438;2024-02-23T14:51:25;9.30;99.90
19906;DHT22;10115;50.906;4.438;2024-02-23T14:53:51;9.30;99.90
19906;DHT22;10115;50.906;4.438;2024-02-23T14:56:17;9.20;99.90
19906;DHT22;10115;50.906;4.438;2024-02-23T14:58:42;9.30;99.90
19906;DHT22;10115;50.906;4.438;2024-02-23T15:01:08;9.30;99.90
19906;DHT22;10115;50.906;4.438;2024-02-23T15:03:34;9.40;99.90
19906;DHT22;10115;50.906;4.438;2024-02-23T15:06:01;9.50;99.90
19906;DHT22;10115;50.906;4.438;2024-02-23T15:08:27;9.70;99.90
19906;DHT22;10115;50.906;4.438;2024-02-23T15:10:53;9.80;99.90
19906;DHT22;10115;50.906;4.438;2024-02-23T15:13:19;9.80;99.90
19906;DHT22;10115;50.906;4.438;2024-02-23T15:15:45;9.80;99.90
19906;DHT22;10115;50.906;4.438;2024-02-23T15:18:11;10.10;99.90
19906;DHT22;10115;50.906;4.438;2024-02-23T15:20:36;10.10;99.90
19906;DHT22;10115;50.906;4.438;2024-02-23T15:23:02;10.70;99.90
19906;DHT22;10115;50.906;4.438;2024-02-23T15:25:28;10.70;99.90
19906;DHT22;10115;50.906;4.438;2024-02-23T15:27:57;10.60;99.90
19906;DHT22;10115;50.906;4.438;2024-02-23T15:30:26;10.30;99.90
19906;DHT22;10115;50.906;4.438;2024-02-23T15:32:51;9.90;99.90
19906;DHT22;10115;50.906;4.438;2024-02-23T15:35:20;9.90;99.90
19906;DHT22;10115;50.906;4.438;2024-02-23T15:37:46;9.90;99.90
19906;DHT22;10115;50.906;4.438;2024-02-23T15:40:14;9.80;99.90
19906;DHT22;10115;50.906;4.438;2024-02-23T15:42:40;9.80;99.90
19906;DHT22;10115;50.906;4.438;2024-02-23T15:45:06;9.70;99.90
19906;DHT22;10115;50.906;4.438;2024-02-23T15:47:32;9.70;99.90
19906;DHT22;10115;50.906;4.438;2024-02-23T15:50:04;9.80;99.90